Time;durP1;ratioP1;P1;durP2;ratioP2;P2;SDS_P1;SDS_P2;PMS_P1;PMS_P2;Temp;Humidity;BMP_temperature;BMP_pressure;BME280_temperature;BME280_humidity;BME280_pressure;Samples;Min_cycle;Max_cycle;Signal;HPM_P1;HPM_P2
2024/01/20 00:01:39;;;;;;;5.13;4.00;;;;;;;;;;5050425;28;20021;-62
2024/01/20 00:04:05;;;;;;;4.03;3.63;;;;;;;;;;5051688;28;20028;-62
2024/01/20 00:06:31;;;;;;;4.77;3.40;;;;;;;;;;5050851;28;20517;-62
2024/01/20 00:08:57;;;;;;;5.43;4.10;;;;;;;;;;5052025;28;20022;-62
2024/01/20 00:11:23;;;;;;;5.70;3.20;;;;;;;;;;5050838;28;20025;-62
2024/01/20 00:13:49;;;;;;;7.03;3.13;;;;;;;;;;5051800;28;20383;-62
2024/01/20 00:16:15;;;;;;;4.60;3.50;;;;;;;;;;5050181;28;20159;-62
2024/01/20 00:18:41;;;;;;;8.83;3.30;;;;;;;;;;5051234;28;20043;-62
2024/01/20 00:21:07;;;;;;;4.60;3.17;;;;;;;;;;5051755;28;20381;-62
2024/01/20 00:23:33;;;;;;;6.10;3.67;;;;;;;;;;5051036;28;20020;-62
2024/01/20 00:25:59;;;;;;;5.20;3.53;;;;;;;;;;5040343;28;20040;-62
2024/01/20 00:28:25;;;;;;;5.23;3.17;;;;;;;;;;5046992;28;20013;-62
2024/01/20 00:30:51;;;;;;;4.20;3.20;;;;;;;;;;5051252;28;20096;-62
2024/01/20 00:33:17;;;;;;;6.20;3.77;;;;;;;;;;5054128;28;20348;-62
2024/01/20 00:35:44;;;;;;;5.73;3.50;;;;;;;;;;5055283;28;20128;-62
2024/01/20 00:38:10;;;;;;;4.57;3.33;;;;;;;;;;5055541;28;20033;-62
2024/01/20 00:40:36;;;;;;;4.80;2.90;;;;;;;;;;5054952;28;20025;-62
2024/01/20 00:43:03;;;;;;;6.53;3.33;;;;;;;;;;5055030;28;20029;-62
2024/01/20 00:45:28;;;;;;;6.23;3.30;;;;;;;;;;5054991;28;20064;-62
2024/01/20 00:47:55;;;;;;;4.53;3.07;;;;;;;;;;5054993;28;20084;-62
2024/01/20 00:50:21;;;;;;;4.43;3.70;;;;;;;;;;5054633;28;20458;-62
2024/01/20 00:52:47;;;;;;;4.77;3.23;;;;;;;;;;5054895;28;20215;-62
2024/01/20 00:55:13;;;;;;;5.50;3.27;;;;;;;;;;5055029;28;20112;-62
2024/01/20 00:57:39;;;;;;;4.97;2.93;;;;;;;;;;5053383;28;20155;-62
2024/01/20 01:00:08;;;;;;;3.70;3.23;;;;;;;;;;5054619;28;20032;-62
2024/01/20 01:02:34;;;;;;;5.07;3.37;;;;;;;;;;5050736;28;20026;-62
2024/01/20 01:05:00;;;;;;;6.03;3.40;;;;;;;;;;5048682;28;20045;-62
2024/01/20 01:07:26;;;;;;;9.17;3.20;;;;;;;;;;5045583;28;20463;-62
2024/01/20 01:09:52;;;;;;;3.63;2.73;;;;;;;;;;5053429;28;20103;-62
2024/01/20 01:12:18;;;;;;;4.07;3.20;;;;;;;;;;5050731;28;20017;-62
2024/01/20 01:14:57;;;;;;;7.63;2.60;;;;;;;;;;5050231;28;20347;-62
2024/01/20 01:17:23;;;;;;;5.33;2.87;;;;;;;;;;5047600;28;20025;-62
2024/01/20 01:19:49;;;;;;;7.17;3.70;;;;;;;;;;5051122;28;20036;-62
2024/01/20 01:22:15;;;;;;;4.90;3.00;;;;;;;;;;5053826;28;20033;-63
2024/01/20 01:24:41;;;;;;;7.50;3.67;;;;;;;;;;5054039;28;20027;-62
2024/01/20 01:27:07;;;;;;;6.20;3.70;;;;;;;;;;5054277;28;20509;-63
2024/01/20 01:29:33;;;;;;;6.07;4.33;;;;;;;;;;5052767;28;20071;-62
2024/01/20 01:31:59;;;;;;;7.30;4.03;;;;;;;;;;5050841;28;20029;-62
2024/01/20 01:34:25;;;;;;;5.80;3.67;;;;;;;;;;5043249;28;20108;-62
2024/01/20 01:36:51;;;;;;;8.20;4.47;;;;;;;;;;5053940;28;20061;-62
2024/01/20 01:39:17;;;;;;;5.23;3.63;;;;;;;;;;5054299;28;20096;-62
2024/01/20 01:41:44;;;;;;;8.13;4.00;;;;;;;;;;5053729;28;20107;-62
2024/01/20 01:44:10;;;;;;;5.70;3.70;;;;;;;;;;5042942;28;20018;-62
2024/01/20 01:46:36;;;;;;;5.40;3.63;;;;;;;;;;5033836;28;20098;-62
2024/01/20 01:52:06;;;;;;;10.93;4.20;;;;;;;;;;5044021;28;20352;-62
2024/01/20 01:54:32;;;;;;;5.80;4.20;;;;;;;;;;5040520;28;20032;-62
2024/01/20 01:57:00;;;;;;;8.30;4.20;;;;;;;;;;5053978;28;20036;-62
2024/01/20 01:59:29;;;;;;;6.60;4.10;;;;;;;;;;5049615;28;20025;-62
2024/01/20 02:01:55;;;;;;;6.17;4.10;;;;;;;;;;5053430;28;20174;-62
2024/01/20 02:04:21;;;;;;;8.23;4.20;;;;;;;;;;5053347;28;20029;-62
2024/01/20 02:06:47;;;;;;;6.23;4.23;;;;;;;;;;5053466;28;20403;-62
2024/01/20 02:09:13;;;;;;;6.67;3.97;;;;;;;;;;5052583;28;20499;-62
2024/01/20 02:11:39;;;;;;;8.10;4.97;;;;;;;;;;5040179;28;20130;-62
2024/01/20 02:14:06;;;;;;;8.60;4.20;;;;;;;;;;5053647;28;20437;-62
2024/01/20 02:16:32;;;;;;;6.37;3.57;;;;;;;;;;5044531;28;20048;-62
2024/01/20 02:19:02;;;;;;;8.67;4.30;;;;;;;;;;5053389;28;20029;-62
2024/01/20 02:21:28;;;;;;;10.70;4.67;;;;;;;;;;5053155;28;20083;-62
2024/01/20 02:23:54;;;;;;;5.53;4.17;;;;;;;;;;5052799;28;20028;-62
2024/01/20 02:26:20;;;;;;;4.13;3.60;;;;;;;;;;5051919;28;20123;-62
2024/01/20 02:28:46;;;;;;;6.80;4.33;;;;;;;;;;5043153;28;20461;-62
2024/01/20 02:31:12;;;;;;;7.53;4.20;;;;;;;;;;5051320;28;20040;-62
2024/01/20 02:33:38;;;;;;;5.60;4.13;;;;;;;;;;5051942;28;20025;-62
2024/01/20 02:36:04;;;;;;;7.77;4.47;;;;;;;;;;5052391;28;20029;-62
2024/01/20 02:38:30;;;;;;;5.53;4.43;;;;;;;;;;5052775;28;20324;-62
2024/01/20 02:40:56;;;;;;;7.47;4.70;;;;;;;;;;5052638;28;20017;-62
2024/01/20 02:43:25;;;;;;;12.53;4.57;;;;;;;;;;5046563;28;20037;-62
2024/01/20 02:45:51;;;;;;;6.90;4.93;;;;;;;;;;5038836;28;20076;-62
2024/01/20 02:48:18;;;;;;;8.47;5.27;;;;;;;;;;5052601;28;20045;-62
2024/01/20 02:50:44;;;;;;;6.33;4.60;;;;;;;;;;5052326;28;20319;-62
2024/01/20 02:53:10;;;;;;;11.23;5.03;;;;;;;;;;5052476;28;20379;-62
2024/01/20 02:55:36;;;;;;;10.23;4.80;;;;;;;;;;5044893;28;20040;-62
2024/01/20 02:58:02;;;;;;;7.00;4.97;;;;;;;;;;5052593;28;20037;-62
2024/01/20 03:00:28;;;;;;;6.27;5.10;;;;;;;;;;5038631;28;20036;-62
2024/01/20 03:02:55;;;;;;;10.43;5.93;;;;;;;;;;5050526;28;20052;-62
2024/01/20 03:05:21;;;;;;;10.27;5.27;;;;;;;;;;5052080;28;20040;-62
2024/01/20 03:07:47;;;;;;;10.47;5.60;;;;;;;;;;5052544;28;20359;-62
2024/01/20 03:10:13;;;;;;;8.63;5.37;;;;;;;;;;5052151;28;20045;-62
2024/01/20 03:12:39;;;;;;;13.23;5.97;;;;;;;;;;5047785;28;20036;-62
2024/01/20 03:15:06;;;;;;;9.03;5.73;;;;;;;;;;5050859;28;20032;-62
2024/01/20 03:17:32;;;;;;;8.50;6.00;;;;;;;;;;5051861;28;20025;-62
2024/01/20 03:19:58;;;;;;;9.83;6.03;;;;;;;;;;5052076;28;20090;-62
2024/01/20 03:22:24;;;;;;;7.23;5.37;;;;;;;;;;5050414;28;20489;-62
2024/01/20 03:24:50;;;;;;;12.43;6.03;;;;;;;;;;5036490;28;20021;-62
2024/01/20 03:27:19;;;;;;;8.90;6.00;;;;;;;;;;5052021;28;20025;-62
2024/01/20 03:29:46;;;;;;;8.27;6.50;;;;;;;;;;5051633;28;20029;-62
2024/01/20 03:32:12;;;;;;;8.43;5.33;;;;;;;;;;5051743;28;20092;-62
2024/01/20 03:34:38;;;;;;;10.40;5.77;;;;;;;;;;5051897;28;20360;-62
2024/01/20 03:37:05;;;;;;;9.13;5.70;;;;;;;;;;5051911;28;20447;-62
2024/01/20 03:39:31;;;;;;;8.43;5.67;;;;;;;;;;5051608;28;20055;-62
2024/01/20 03:41:57;;;;;;;7.47;5.83;;;;;;;;;;5038382;28;20367;-62
2024/01/20 03:44:23;;;;;;;8.87;5.70;;;;;;;;;;5042360;28;20107;-62
2024/01/20 03:46:49;;;;;;;11.60;5.63;;;;;;;;;;5050164;28;20461;-61
2024/01/20 03:49:15;;;;;;;9.23;5.50;;;;;;;;;;5051761;28;20211;-62
2024/01/20 03:51:41;;;;;;;7.40;5.53;;;;;;;;;;5051521;28;20021;-62
2024/01/20 03:54:23;;;;;;;7.90;5.13;;;;;;;;;;5051634;28;20431;-62
2024/01/20 03:56:49;;;;;;;7.37;5.00;;;;;;;;;;5051556;28;20483;-62
2024/01/20 03:59:15;;;;;;;10.27;5.30;;;;;;;;;;5051414;28;20087;-62
2024/01/20 04:01:41;;;;;;;11.73;5.57;;;;;;;;;;5051514;28;20444;-62
2024/01/20 04:04:07;;;;;;;5.63;5.13;;;;;;;;;;5051390;28;20021;-62
2024/01/20 04:06:33;;;;;;;10.43;5.30;;;;;;;;;;5037744;28;20459;-62
2024/01/20 04:08:59;;;;;;;7.73;5.30;;;;;;;;;;5054723;28;20029;-62
2024/01/20 04:11:25;;;;;;;12.77;5.60;;;;;;;;;;5041341;28;20526;-62
2024/01/20 04:13:51;;;;;;;14.43;5.57;;;;;;;;;;5055498;28;20029;-62
2024/01/20 04:16:17;;;;;;;6.77;5.10;;;;;;;;;;5055537;28;20025;-62
2024/01/20 04:18:43;;;;;;;9.90;5.53;;;;;;;;;;5053960;28;20025;-62
2024/01/20 04:21:09;;;;;;;9.53;5.70;;;;;;;;;;5041330;28;20463;-62
2024/01/20 04:23:35;;;;;;;8.17;5.77;;;;;;;;;;5055207;28;20142;-62
2024/01/20 04:26:00;;;;;;;9.33;5.53;;;;;;;;;;5055351;28;20447;-62
2024/01/20 04:28:26;;;;;;;7.23;5.20;;;;;;;;;;5055040;28;20017;-62
2024/01/20 04:30:53;;;;;;;9.63;5.67;;;;;;;;;;5053612;28;20067;-62
2024/01/20 04:33:19;;;;;;;6.40;4.93;;;;;;;;;;5055186;28;20025;-62
2024/01/20 04:35:45;;;;;;;6.60;5.33;;;;;;;;;;5055414;28;20423;-62
2024/01/20 04:38:11;;;;;;;8.07;5.07;;;;;;;;;;5054844;28;20053;-62
2024/01/20 04:40:37;;;;;;;8.07;5.80;;;;;;;;;;5055171;28;20366;-62
2024/01/20 04:43:03;;;;;;;7.13;5.20;;;;;;;;;;5054978;28;20033;-62
2024/01/20 04:45:35;;;;;;;9.27;5.10;;;;;;;;;;5051610;28;20475;-62
2024/01/20 04:48:02;;;;;;;8.37;5.23;;;;;;;;;;5047096;28;20052;-62
2024/01/20 04:50:27;;;;;;;7.47;4.67;;;;;;;;;;5054707;28;20021;-62
2024/01/20 04:52:54;;;;;;;9.10;5.43;;;;;;;;;;5054643;28;20441;-62
2024/01/20 04:55:20;;;;;;;7.37;4.97;;;;;;;;;;5054769;28;20024;-62
2024/01/20 04:57:46;;;;;;;8.67;5.77;;;;;;;;;;5054671;28;20013;-62
2024/01/20 05:00:15;;;;;;;7.20;4.90;;;;;;;;;;5054520;28;20111;-62
2024/01/20 05:02:41;;;;;;;9.03;5.30;;;;;;;;;;5053254;28;20020;-62
2024/01/20 05:05:08;;;;;;;8.37;5.17;;;;;;;;;;5053872;28;20036;-62
2024/01/20 05:07:34;;;;;;;8.17;5.17;;;;;;;;;;5054347;28;20033;-62
2024/01/20 05:10:00;;;;;;;9.47;5.00;;;;;;;;;;5053110;28;20025;-62
2024/01/20 05:12:26;;;;;;;8.43;5.07;;;;;;;;;;5040223;28;20067;-62
2024/01/20 05:14:53;;;;;;;7.63;4.90;;;;;;;;;;5054519;28;20076;-62
2024/01/20 05:17:19;;;;;;;9.70;5.13;;;;;;;;;;5054005;28;20032;-62
2024/01/20 05:19:45;;;;;;;9.47;4.97;;;;;;;;;;5054514;28;20442;-62
2024/01/20 05:22:11;;;;;;;6.93;5.17;;;;;;;;;;5052672;28;20025;-62
2024/01/20 05:24:37;;;;;;;8.80;4.63;;;;;;;;;;5053888;28;20078;-62
2024/01/20 05:27:06;;;;;;;5.70;4.57;;;;;;;;;;5054019;28;20119;-62
2024/01/20 05:29:32;;;;;;;6.60;4.60;;;;;;;;;;5053948;28;20371;-62
2024/01/20 05:31:58;;;;;;;7.73;5.20;;;;;;;;;;5054264;28;20033;-62
2024/01/20 05:40:31;;;;;;;5.70;4.67;;;;;;;;;;5048564;28;20504;-62
2024/01/20 05:42:57;;;;;;;7.73;4.70;;;;;;;;;;5053934;28;20048;-62
2024/01/20 05:45:23;;;;;;;7.47;5.10;;;;;;;;;;5053464;28;20443;-62
2024/01/20 05:47:49;;;;;;;8.43;5.27;;;;;;;;;;5053800;28;20052;-62
2024/01/20 05:50:18;;;;;;;6.07;5.23;;;;;;;;;;5053701;28;20037;-62
2024/01/20 05:52:43;;;;;;;7.17;4.87;;;;;;;;;;5047396;28;20029;-62
2024/01/20 05:55:09;;;;;;;5.30;4.53;;;;;;;;;;5047527;28;20041;-62
2024/01/20 05:57:35;;;;;;;8.73;5.83;;;;;;;;;;5049062;28;20123;-62
2024/01/20 06:00:03;;;;;;;18.87;5.70;;;;;;;;;;5042185;28;20091;-62
2024/01/20 06:02:32;;;;;;;6.77;4.57;;;;;;;;;;5051655;28;20025;-62
2024/01/20 06:04:58;;;;;;;9.20;5.20;;;;;;;;;;5048209;28;20403;-62
2024/01/20 06:07:24;;;;;;;7.73;4.73;;;;;;;;;;5053232;28;20079;-62
2024/01/20 06:09:49;;;;;;;7.47;4.73;;;;;;;;;;5053406;28;20036;-62
2024/01/20 06:12:15;;;;;;;8.90;4.77;;;;;;;;;;5053358;28;20103;-62
2024/01/20 06:14:42;;;;;;;5.10;4.20;;;;;;;;;;5053300;28;20518;-62
2024/01/20 06:17:08;;;;;;;6.93;4.10;;;;;;;;;;5053300;28;20044;-62
2024/01/20 06:19:34;;;;;;;6.67;4.20;;;;;;;;;;5053457;28;20086;-57
2024/01/20 06:22:00;;;;;;;6.17;3.87;;;;;;;;;;5052886;28;20029;-55
2024/01/20 06:24:26;;;;;;;7.43;3.50;;;;;;;;;;5052788;28;20037;-57
2024/01/20 06:26:52;;;;;;;4.87;3.57;;;;;;;;;;5052698;28;20045;-56
2024/01/20 06:29:27;;;;;;;4.73;3.47;;;;;;;;;;5052381;28;20098;-55
2024/01/20 06:31:53;;;;;;;4.07;3.60;;;;;;;;;;5052842;28;20494;-63
2024/01/20 06:34:19;;;;;;;7.40;3.73;;;;;;;;;;5052755;28;20025;-63
2024/01/20 06:36:45;;;;;;;4.57;3.47;;;;;;;;;;5052918;28;20025;-63
2024/01/20 06:39:11;;;;;;;4.80;3.50;;;;;;;;;;5052468;28;20021;-63
2024/01/20 06:41:45;;;;;;;4.30;3.40;;;;;;;;;;5050960;28;20078;-63
2024/01/20 06:44:11;;;;;;;5.20;3.23;;;;;;;;;;5052399;28;20654;-63
2024/01/20 06:46:57;;;;;;;6.40;3.70;;;;;;;;;;5052528;28;20044;-63
2024/01/20 06:49:23;;;;;;;7.60;4.03;;;;;;;;;;5031084;28;20395;-63
2024/01/20 06:51:49;;;;;;;5.67;3.43;;;;;;;;;;5032693;28;20030;-63
2024/01/20 06:54:15;;;;;;;4.63;3.50;;;;;;;;;;5032056;28;20049;-63
2024/01/20 06:56:42;;;;;;;5.37;3.30;;;;;;;;;;5032640;28;20043;-63
2024/01/20 06:59:08;;;;;;;4.43;2.30;;;;;;;;;;5032711;28;20022;-63
2024/01/20 07:01:34;;;;;;;3.97;2.60;;;;;;;;;;5032227;28;20036;-63
2024/01/20 07:04:00;;;;;;;3.87;2.83;;;;;;;;;;5032317;28;20124;-64
2024/01/20 07:06:26;;;;;;;3.97;2.30;;;;;;;;;;5030834;28;20033;-63
2024/01/20 07:08:54;;;;;;;2.97;2.20;;;;;;;;;;5031029;28;20041;-63
2024/01/20 07:11:20;;;;;;;3.40;2.43;;;;;;;;;;5032506;28;20043;-63
2024/01/20 07:13:46;;;;;;;4.03;2.40;;;;;;;;;;5032396;28;20072;-63
2024/01/20 07:16:13;;;;;;;3.70;2.43;;;;;;;;;;5031334;28;20063;-63
2024/01/20 07:18:40;;;;;;;4.63;2.60;;;;;;;;;;5030683;28;20344;-63
2024/01/20 07:21:07;;;;;;;4.97;2.73;;;;;;;;;;5030563;28;20040;-61
2024/01/20 07:23:33;;;;;;;4.67;2.47;;;;;;;;;;5027697;28;20096;-63
2024/01/20 07:25:59;;;;;;;5.00;2.30;;;;;;;;;;5019655;28;20081;-63
2024/01/20 07:28:26;;;;;;;3.30;2.40;;;;;;;;;;5014461;28;20463;-64
2024/01/20 07:30:52;;;;;;;3.77;2.33;;;;;;;;;;5031807;28;20049;-64
2024/01/20 07:33:18;;;;;;;5.00;2.53;;;;;;;;;;5030702;28;20084;-63
2024/01/20 07:35:44;;;;;;;7.23;2.57;;;;;;;;;;5029924;28;20029;-64
2024/01/20 07:38:11;;;;;;;4.77;2.60;;;;;;;;;;5021364;28;20117;-64
2024/01/20 07:40:37;;;;;;;5.07;2.23;;;;;;;;;;5025723;28;20487;-63
2024/01/20 07:43:04;;;;;;;3.50;2.00;;;;;;;;;;5023103;28;20025;-63
2024/01/20 07:45:31;;;;;;;5.40;2.40;;;;;;;;;;5030955;28;20124;-63
2024/01/20 07:47:57;;;;;;;3.70;2.20;;;;;;;;;;5036764;28;20512;-64
2024/01/20 07:50:23;;;;;;;3.80;2.00;;;;;;;;;;5051018;28;20108;-63
2024/01/20 07:52:49;;;;;;;3.40;2.13;;;;;;;;;;5050938;28;20525;-63
2024/01/20 07:55:16;;;;;;;4.70;2.30;;;;;;;;;;5051330;28;20029;-64
2024/01/20 07:57:42;;;;;;;5.33;2.50;;;;;;;;;;5039989;28;20040;-64
2024/01/20 08:00:10;;;;;;;7.30;2.60;;;;;;;;;;5051264;28;20028;-64
2024/01/20 08:02:36;;;;;;;2.87;2.50;;;;;;;;;;5049951;28;20041;-64
2024/01/20 08:05:03;;;;;;;5.53;3.33;;;;;;;;;;5049978;28;20052;-64
2024/01/20 08:07:29;;;;;;;5.27;3.40;;;;;;;;;;5045746;28;20378;-64
2024/01/20 08:09:55;;;;;;;4.87;3.33;;;;;;;;;;5050591;28;20044;-64
2024/01/20 08:12:21;;;;;;;4.87;3.40;;;;;;;;;;5050448;28;20085;-64
2024/01/20 08:14:46;;;;;;;6.47;3.60;;;;;;;;;;5043861;28;20104;-64
2024/01/20 08:17:13;;;;;;;9.60;4.10;;;;;;;;;;5043534;28;20052;-65
2024/01/20 08:19:42;;;;;;;4.63;3.83;;;;;;;;;;5049821;28;20024;-64
2024/01/20 08:22:21;;;;;;;6.67;3.97;;;;;;;;;;5050009;28;20033;-65
2024/01/20 08:24:47;;;;;;;5.87;4.00;;;;;;;;;;5049975;28;20606;-65
2024/01/20 08:27:13;;;;;;;5.80;3.97;;;;;;;;;;5050434;28;20171;-65
2024/01/20 08:29:39;;;;;;;4.13;3.53;;;;;;;;;;5048374;28;20371;-64
2024/01/20 08:32:06;;;;;;;7.57;3.93;;;;;;;;;;5050145;28;20021;-64
2024/01/20 08:34:32;;;;;;;6.17;3.47;;;;;;;;;;5050155;28;20043;-64
2024/01/20 08:36:57;;;;;;;4.20;3.57;;;;;;;;;;5050318;28;20029;-64
2024/01/20 08:39:23;;;;;;;5.97;3.30;;;;;;;;;;5043736;28;20179;-63
2024/01/20 08:41:49;;;;;;;4.93;4.40;;;;;;;;;;5044179;28;20048;-64
2024/01/20 08:44:16;;;;;;;4.93;3.67;;;;;;;;;;5050572;28;20068;-64
2024/01/20 08:46:42;;;;;;;6.57;4.07;;;;;;;;;;5049535;28;20044;-65
2024/01/20 08:49:08;;;;;;;5.63;4.07;;;;;;;;;;5044320;28;20057;-64
2024/01/20 08:51:34;;;;;;;6.07;3.57;;;;;;;;;;5043194;28;20026;-64
2024/01/20 08:54:00;;;;;;;6.83;3.53;;;;;;;;;;5049409;28;20415;-64
2024/01/20 08:56:26;;;;;;;5.43;3.53;;;;;;;;;;5054468;28;20355;-64
2024/01/20 08:58:52;;;;;;;4.10;3.00;;;;;;;;;;5052613;28;20097;-64
2024/01/20 09:01:18;;;;;;;5.17;3.47;;;;;;;;;;5051849;28;20025;-64
2024/01/20 09:03:44;;;;;;;5.73;3.43;;;;;;;;;;5050798;28;20494;-64
2024/01/20 09:06:13;;;;;;;5.63;3.33;;;;;;;;;;5052986;28;20116;-64
2024/01/20 09:08:39;;;;;;;4.40;3.87;;;;;;;;;;5048403;28;20029;-64
2024/01/20 09:11:05;;;;;;;6.00;3.07;;;;;;;;;;5054029;28;20425;-64
2024/01/20 09:13:34;;;;;;;5.10;2.80;;;;;;;;;;5043778;28;20022;-64
2024/01/20 09:16:00;;;;;;;3.10;2.80;;;;;;;;;;5053316;28;20037;-64
2024/01/20 09:18:26;;;;;;;4.17;3.27;;;;;;;;;;5053198;28;20118;-64
2024/01/20 09:20:52;;;;;;;3.03;2.53;;;;;;;;;;5053238;28;20045;-64
2024/01/20 09:23:21;;;;;;;5.60;2.97;;;;;;;;;;5044417;28;20343;-64
2024/01/20 09:25:47;;;;;;;5.60;3.57;;;;;;;;;;5051678;28;20495;-64
2024/01/20 09:28:14;;;;;;;6.60;3.70;;;;;;;;;;5053598;28;20111;-64
2024/01/20 09:30:40;;;;;;;4.70;2.70;;;;;;;;;;5042445;28;20045;-66
2024/01/20 09:33:06;;;;;;;4.20;2.43;;;;;;;;;;5049557;28;20135;-68
2024/01/20 09:35:32;;;;;;;4.03;2.37;;;;;;;;;;5053088;28;20044;-56
2024/01/20 09:37:58;;;;;;;6.10;3.13;;;;;;;;;;5047494;28;20026;-61
2024/01/20 09:40:24;;;;;;;3.13;2.33;;;;;;;;;;5044657;28;20025;-61
2024/01/20 09:42:50;;;;;;;4.13;2.87;;;;;;;;;;5052079;28;20025;-61
2024/01/20 09:45:16;;;;;;;4.63;3.10;;;;;;;;;;5050781;28;20035;-61
2024/01/20 09:47:43;;;;;;;5.03;2.70;;;;;;;;;;5046512;28;20402;-61
2024/01/20 09:50:09;;;;;;;4.73;2.50;;;;;;;;;;5053215;28;20032;-61
2024/01/20 09:52:38;;;;;;;2.97;2.50;;;;;;;;;;5052498;28;20135;-55
2024/01/20 09:58:10;;;;;;;14.83;3.07;;;;;;;;;;5039877;28;20032;-59
2024/01/20 10:00:37;;;;;;;6.80;3.27;;;;;;;;;;5045772;28;20547;-59
2024/01/20 10:03:04;;;;;;;4.50;2.90;;;;;;;;;;5033563;28;20052;-59
2024/01/20 10:05:34;;;;;;;5.17;3.10;;;;;;;;;;5050214;28;20068;-59
2024/01/20 10:08:00;;;;;;;4.20;2.30;;;;;;;;;;5050296;28;20048;-59
2024/01/20 10:10:27;;;;;;;4.13;2.30;;;;;;;;;;5047169;28;20040;-60
2024/01/20 10:12:57;;;;;;;3.13;2.07;;;;;;;;;;5052838;28;20048;-60
2024/01/20 10:15:25;;;;;;;3.30;1.93;;;;;;;;;;5048030;28;20022;-60
2024/01/20 10:17:51;;;;;;;2.33;1.80;;;;;;;;;;5048507;28;20040;-60
2024/01/20 10:20:21;;;;;;;2.87;2.03;;;;;;;;;;5051125;28;20141;-60
2024/01/20 10:22:47;;;;;;;2.73;2.00;;;;;;;;;;5051963;27;20120;-60
2024/01/20 10:25:19;;;;;;;2.40;1.63;;;;;;;;;;5045937;28;20080;-60
2024/01/20 10:27:51;;;;;;;8.50;2.00;;;;;;;;;;5034988;28;20399;-60
2024/01/20 10:30:20;;;;;;;2.53;1.87;;;;;;;;;;5039557;28;20031;-60
2024/01/20 10:32:46;;;;;;;2.50;1.50;;;;;;;;;;5048687;28;20057;-60
2024/01/20 10:35:12;;;;;;;3.10;1.70;;;;;;;;;;5052337;28;20398;-60
2024/01/20 10:37:40;;;;;;;4.60;2.13;;;;;;;;;;5038253;28;20035;-60
2024/01/20 10:40:10;;;;;;;63.23;6.20;;;;;;;;;;5040371;28;20066;-60
2024/01/20 10:42:43;;;;;;;6.93;1.67;;;;;;;;;;5048141;28;20119;-60
2024/01/20 10:45:10;;;;;;;3.93;1.30;;;;;;;;;;5038282;28;20017;-60
2024/01/20 10:47:37;;;;;;;5.83;2.03;;;;;;;;;;5051816;28;20041;-60
2024/01/20 10:50:07;;;;;;;9.30;2.30;;;;;;;;;;5051962;28;20048;-60
2024/01/20 10:52:34;;;;;;;3.90;1.70;;;;;;;;;;5052099;28;20025;-60
2024/01/20 10:55:04;;;;;;;3.77;1.60;;;;;;;;;;5052591;28;20107;-61
2024/01/20 10:57:31;;;;;;;3.70;1.70;;;;;;;;;;5052795;28;20025;-61
2024/01/20 10:59:58;;;;;;;5.43;1.80;;;;;;;;;;5052264;28;20407;-61
2024/01/20 11:02:25;;;;;;;4.37;1.70;;;;;;;;;;5052249;28;20504;-61
2024/01/20 11:04:51;;;;;;;2.10;1.60;;;;;;;;;;5050252;28;20024;-61
2024/01/20 11:07:26;;;;;;;4.33;1.80;;;;;;;;;;5044060;28;20041;-60
2024/01/20 11:09:59;;;;;;;3.30;1.90;;;;;;;;;;5048857;28;20021;-61
2024/01/20 11:12:25;;;;;;;4.17;1.83;;;;;;;;;;5052518;28;20051;-61
2024/01/20 11:14:52;;;;;;;3.13;1.57;;;;;;;;;;5051987;28;20087;-60
2024/01/20 11:17:18;;;;;;;3.63;1.53;;;;;;;;;;5051756;28;20025;-61
2024/01/20 11:19:44;;;;;;;2.33;1.70;;;;;;;;;;5049984;28;20031;-60
2024/01/20 11:22:29;;;;;;;3.73;1.97;;;;;;;;;;5051929;28;20033;-60
2024/01/20 11:24:56;;;;;;;4.07;1.90;;;;;;;;;;5051513;28;20025;-59
2024/01/20 11:27:22;;;;;;;2.50;1.60;;;;;;;;;;5051743;28;20437;-61
2024/01/20 11:29:48;;;;;;;5.00;2.30;;;;;;;;;;5051331;28;20025;-55
2024/01/20 11:32:14;;;;;;;6.77;2.30;;;;;;;;;;5050076;28;20423;-60
2024/01/20 11:34:43;;;;;;;6.20;2.83;;;;;;;;;;5050548;28;20067;-55
2024/01/20 11:37:10;;;;;;;4.07;2.50;;;;;;;;;;5052004;28;20075;-61
2024/01/20 11:39:36;;;;;;;4.43;1.93;;;;;;;;;;5051820;28;20016;-62
2024/01/20 11:42:03;;;;;;;3.40;2.20;;;;;;;;;;5051846;28;20107;-62
2024/01/20 11:44:31;;;;;;;3.83;2.20;;;;;;;;;;5051756;28;20375;-62
2024/01/20 11:46:58;;;;;;;3.60;2.10;;;;;;;;;;5052081;28;20440;-62
2024/01/20 11:49:24;;;;;;;4.40;2.70;;;;;;;;;;5051830;28;20386;-63
2024/01/20 11:51:51;;;;;;;2.60;2.22;;;;;;;;;;5046388;28;20037;-62
2024/01/20 11:54:17;;;;;;;3.50;2.03;;;;;;;;;;5038911;28;20029;-62
2024/01/20 11:56:43;;;;;;;3.27;2.40;;;;;;;;;;5046872;28;20017;-54
2024/01/20 11:59:09;;;;;;;4.75;2.30;;;;;;;;;;5050379;28;20021;-64
2024/01/20 12:01:36;;;;;;;4.10;2.27;;;;;;;;;;5050064;28;20017;-62
2024/01/20 12:04:02;;;;;;;4.73;2.20;;;;;;;;;;5042271;28;20383;-66
2024/01/20 12:06:28;;;;;;;4.28;2.08;;;;;;;;;;5049249;28;20033;-66
2024/01/20 12:08:56;;;;;;;2.17;1.30;;;;;;;;;;5050449;28;20467;-63
2024/01/20 12:11:23;;;;;;;1.80;1.63;;;;;;;;;;5049562;28;20458;-59
2024/01/20 12:13:49;;;;;;;2.90;2.10;;;;;;;;;;5050141;28;20024;-61
2024/01/20 12:16:16;;;;;;;2.87;1.93;;;;;;;;;;5051535;28;20017;-57
2024/01/20 12:18:42;;;;;;;5.10;2.20;;;;;;;;;;5051695;28;20036;-62
2024/01/20 12:21:09;;;;;;;4.03;1.42;;;;;;;;;;5051147;28;20024;-61
2024/01/20 12:23:38;;;;;;;3.03;1.90;;;;;;;;;;5051607;28;20027;-58
2024/01/20 12:26:14;;;;;;;3.97;1.70;;;;;;;;;;5051211;28;20049;-69
2024/01/20 12:28:42;;;;;;;3.47;2.40;;;;;;;;;;5049126;28;20029;-61
2024/01/20 12:31:08;;;;;;;4.63;2.27;;;;;;;;;;5051121;28;20429;-65
2024/01/20 12:33:34;;;;;;;3.70;2.50;;;;;;;;;;5053010;28;20040;-67
2024/01/20 12:36:06;;;;;;;4.70;1.80;;;;;;;;;;5054949;28;20021;-63
2024/01/20 12:38:32;;;;;;;2.80;1.87;;;;;;;;;;5054322;28;20048;-71
2024/01/20 12:40:58;;;;;;;4.32;1.95;;;;;;;;;;5053211;28;20022;-66
2024/01/20 12:43:24;;;;;;;5.93;1.83;;;;;;;;;;5053812;28;20088;-63
2024/01/20 12:45:50;;;;;;;2.73;2.30;;;;;;;;;;5053327;28;20036;-68
2024/01/20 12:48:16;;;;;;;3.23;1.97;;;;;;;;;;5054810;28;20056;-54
2024/01/20 12:50:42;;;;;;;1.83;1.63;;;;;;;;;;5054878;28;20100;-63
2024/01/20 12:53:08;;;;;;;3.93;2.07;;;;;;;;;;5050561;28;20471;-67
2024/01/20 12:55:34;;;;;;;4.03;2.83;;;;;;;;;;5055880;28;20017;-61
2024/01/20 12:58:00;;;;;;;5.68;2.53;;;;;;;;;;5055004;28;20033;-72
2024/01/20 13:00:26;;;;;;;4.67;2.80;;;;;;;;;;5054747;28;20025;-71
2024/01/20 13:02:52;;;;;;;4.60;2.20;;;;;;;;;;5054682;28;20029;-70
2024/01/20 13:05:18;;;;;;;2.83;2.37;;;;;;;;;;5054745;28;20083;-68
2024/01/20 13:10:49;;;;;;;2.53;2.20;;;;;;;;;;5043975;28;20452;-62
2024/01/20 13:13:16;;;;;;;4.77;2.60;;;;;;;;;;5047531;28;20041;-73
2024/01/20 13:15:42;;;;;;;5.57;2.90;;;;;;;;;;5038926;28;20485;-60
2024/01/20 13:18:11;;;;;;;5.07;3.00;;;;;;;;;;5054742;28;20029;-61
2024/01/20 13:20:37;;;;;;;7.67;3.07;;;;;;;;;;5050508;28;20164;-51
2024/01/20 13:23:05;;;;;;;4.43;2.40;;;;;;;;;;5044060;28;20394;-54
2024/01/20 13:25:31;;;;;;;4.60;2.97;;;;;;;;;;5042602;28;20018;-51
2024/01/20 13:27:57;;;;;;;3.17;2.83;;;;;;;;;;5054424;28;20064;-53
2024/01/20 13:30:23;;;;;;;5.75;2.75;;;;;;;;;;5054306;28;20120;-50
2024/01/20 13:32:49;;;;;;;4.95;2.47;;;;;;;;;;5054375;28;20025;-51
2024/01/20 13:35:15;;;;;;;4.43;2.40;;;;;;;;;;5054241;28;20060;-51
2024/01/20 13:37:41;;;;;;;4.15;2.55;;;;;;;;;;5054389;28;20021;-50
2024/01/20 13:40:09;;;;;;;6.05;2.35;;;;;;;;;;5054150;28;20478;-53
2024/01/20 13:42:35;;;;;;;3.60;2.50;;;;;;;;;;5053952;28;20086;-54
2024/01/20 13:45:03;;;;;;;3.28;2.50;;;;;;;;;;5054154;28;20021;-55
2024/01/20 13:47:29;;;;;;;2.53;2.08;;;;;;;;;;5053897;28;20064;-56
2024/01/20 13:49:55;;;;;;;3.15;2.40;;;;;;;;;;5053963;28;20036;-56
2024/01/20 13:52:21;;;;;;;3.53;2.78;;;;;;;;;;5053127;28;20382;-55
2024/01/20 13:54:47;;;;;;;3.58;1.95;;;;;;;;;;5052365;28;20078;-57
2024/01/20 13:57:13;;;;;;;5.20;2.53;;;;;;;;;;5048916;28;20083;-55
2024/01/20 13:59:39;;;;;;;3.47;2.58;;;;;;;;;;5051190;28;20028;-55
2024/01/20 14:02:06;;;;;;;2.95;2.22;;;;;;;;;;5053282;28;20033;-56
2024/01/20 14:04:32;;;;;;;6.47;2.42;;;;;;;;;;5053461;28;20025;-57
2024/01/20 14:06:59;;;;;;;2.47;2.17;;;;;;;;;;5053195;28;20115;-54
2024/01/20 14:09:25;;;;;;;4.05;2.28;;;;;;;;;;5053651;28;20095;-57
2024/01/20 14:11:51;;;;;;;6.90;2.40;;;;;;;;;;5039946;28;20111;-55
2024/01/20 14:14:17;;;;;;;3.53;1.85;;;;;;;;;;5053537;28;20439;-54
2024/01/20 14:16:54;;;;;;;2.45;1.80;;;;;;;;;;5053314;28;20048;-54
2024/01/20 14:19:20;;;;;;;3.90;2.25;;;;;;;;;;5051998;28;20021;-57
2024/01/20 14:21:46;;;;;;;3.10;2.15;;;;;;;;;;5053214;28;20032;-54
2024/01/20 14:24:12;;;;;;;3.10;2.05;;;;;;;;;;5052997;28;20048;-54
2024/01/20 14:26:38;;;;;;;3.10;1.67;;;;;;;;;;5051608;28;20029;-55
2024/01/20 14:29:07;;;;;;;3.13;2.40;;;;;;;;;;5053205;28;20025;-54
2024/01/20 14:31:33;;;;;;;2.80;2.22;;;;;;;;;;5044870;28;20043;-55
2024/01/20 14:33:59;;;;;;;3.30;2.38;;;;;;;;;;5052687;28;20025;-56
2024/01/20 14:36:25;;;;;;;2.80;1.98;;;;;;;;;;5048570;28;20037;-54
2024/01/20 14:38:51;;;;;;;3.20;2.08;;;;;;;;;;5047396;28;20162;-55
2024/01/20 14:41:18;;;;;;;2.85;2.20;;;;;;;;;;5046533;28;20049;-56
2024/01/20 14:43:44;;;;;;;4.80;1.98;;;;;;;;;;5046850;28;20025;-57
2024/01/20 14:46:10;;;;;;;4.05;2.08;;;;;;;;;;5051156;28;20033;-54
2024/01/20 14:48:36;;;;;;;2.75;1.67;;;;;;;;;;5043267;28;20069;-69
2024/01/20 14:51:02;;;;;;;3.50;2.10;;;;;;;;;;5042971;28;20060;-69
2024/01/20 14:53:28;;;;;;;5.05;2.35;;;;;;;;;;5052365;28;20017;-69
2024/01/20 14:55:55;;;;;;;2.38;2.08;;;;;;;;;;5038671;28;20034;-68